createdAt,value
2018-06-21T00:00:04.117Z,82.44
2018-06-21T00:02:32.576Z,83.02
2018-06-21T00:05:01.056Z,81.66
2018-06-21T00:07:29.574Z,81.48
2018-06-21T00:09:57.999Z,82.47
2018-06-21T00:12:26.423Z,81.83
2018-06-21T00:14:54.920Z,80.65
2018-06-21T00:17:23.432Z,81.38
2018-06-21T00:19:51.855Z,82.68
2018-06-21T00:22:20.476Z,84.99
2018-06-21T00:24:48.981Z,83.47
2018-06-21T00:27:17.605Z,83.03
2018-06-21T00:29:46.152Z,83.42
2018-06-21T00:32:14.783Z,82.30
2018-06-21T00:34:43.276Z,82.72
2018-06-21T00:37:11.852Z,82.47
2018-06-21T00:39:40.444Z,83.50
2018-06-21T00:42:09.273Z,82.84
2018-06-21T00:44:37.848Z,82.88
2018-06-21T00:47:06.435Z,82.93
2018-06-21T00:49:35.055Z,83.54
2018-06-21T00:52:03.600Z,84.92
2018-06-21T00:54:32.353Z,84.19
2018-06-21T00:57:00.865Z,83.71
2018-06-21T00:59:29.388Z,84.23
2018-06-21T01:01:57.956Z,82.99
2018-06-21T01:04:26.484Z,83.98
2018-06-21T01:06:55.123Z,83.39
2018-06-21T01:09:23.700Z,83.26
2018-06-21T01:11:52.312Z,84.06
2018-06-21T01:14:20.862Z,83.84
2018-06-21T01:16:49.359Z,83.23
2018-06-21T01:19:18.036Z,82.85
2018-06-21T01:21:47.488Z,83.63
2018-06-21T01:24:16.101Z,83.60
2018-06-21T01:26:44.668Z,83.86
2018-06-21T01:29:13.733Z,83.24
2018-06-21T01:31:42.272Z,83.07
2018-06-21T01:34:10.873Z,83.50
2018-06-21T01:36:39.505Z,84.25
2018-06-21T01:39:09.321Z,83.59
2018-06-21T01:41:38.652Z,82.85
2018-06-21T01:44:07.936Z,84.04
2018-06-21T01:46:36.876Z,82.70
2018-06-21T01:49:05.440Z,83.05
2018-06-21T01:51:34.001Z,83.00
2018-06-21T01:54:02.629Z,83.06
2018-06-21T01:56:31.180Z,83.81
2018-06-21T01:58:59.816Z,84.33
2018-06-21T02:01:28.420Z,84.39
2018-06-21T02:03:57.024Z,83.04
2018-06-21T02:06:25.544Z,83.51
2018-06-21T02:08:54.308Z,84.10
2018-06-21T02:11:22.901Z,85.19
2018-06-21T02:13:51.472Z,84.27
2018-06-21T02:16:20.096Z,84.59
2018-06-21T02:18:48.619Z,85.06
2018-06-21T02:21:17.620Z,85.79
2018-06-21T02:23:46.184Z,84.74
2018-06-21T02:26:14.684Z,85.14
2018-06-21T02:28:43.292Z,84.33
2018-06-21T02:31:11.825Z,83.78
2018-06-21T02:33:40.368Z,84.62
2018-06-21T02:36:08.970Z,83.52
2018-06-21T02:38:37.700Z,84.61
2018-06-21T02:41:06.396Z,83.74
2018-06-21T02:43:34.940Z,84.37
2018-06-21T02:46:03.592Z,83.67
2018-06-21T02:48:32.160Z,84.84
2018-06-21T02:51:00.754Z,84.24
2018-06-21T02:53:29.324Z,83.98
2018-06-21T02:55:57.900Z,84.86
2018-06-21T02:58:26.419Z,85.25
2018-06-21T03:00:55.000Z,84.54
2018-06-21T03:03:23.620Z,84.50
2018-06-21T03:05:52.149Z,85.26
2018-06-21T03:08:20.732Z,85.98
2018-06-21T03:10:49.269Z,85.67
2018-06-21T03:13:17.876Z,86.29
2018-06-21T03:15:46.404Z,85.84
2018-06-21T03:18:14.978Z,85.47
2018-06-21T03:20:43.972Z,85.97
2018-06-21T03:23:12.473Z,85.81
2018-06-21T03:25:41.087Z,85.55
2018-06-21T03:28:09.687Z,86.27
2018-06-21T03:30:38.369Z,85.67
2018-06-21T03:33:07.208Z,87.45
2018-06-21T03:35:35.760Z,87.02
2018-06-21T03:38:04.284Z,86.69
2018-06-21T03:40:32.880Z,86.37
2018-06-21T03:43:01.445Z,85.91
2018-06-21T03:45:30.081Z,85.81
2018-06-21T03:47:58.618Z,85.74
2018-06-21T03:50:27.248Z,87.96
2018-06-21T03:52:55.864Z,87.47
2018-06-21T03:55:24.468Z,88.30
2018-06-21T03:57:53.294Z,86.75
2018-06-21T04:00:21.832Z,86.21
2018-06-21T04:02:50.348Z,85.29
2018-06-21T04:05:18.940Z,85.61
2018-06-21T04:07:47.506Z,84.63
2018-06-21T04:10:16.147Z,84.54
2018-06-21T04:12:44.717Z,84.64
2018-06-21T04:15:13.276Z,85.58
2018-06-21T04:17:41.836Z,86.12
2018-06-21T04:20:10.384Z,86.01
2018-06-21T04:22:39.011Z,86.62
2018-06-21T04:25:07.580Z,86.54
2018-06-21T04:27:36.179Z,85.03
2018-06-21T04:30:05.248Z,82.50
2018-06-21T04:32:33.796Z,78.02
2018-06-21T04:35:02.869Z,77.14
2018-06-21T04:37:31.405Z,73.28
2018-06-21T04:40:00.036Z,71.25
2018-06-21T04:42:28.606Z,72.53
2018-06-21T04:44:57.177Z,70.78
2018-06-21T04:47:25.980Z,70.45
2018-06-21T04:49:54.519Z,68.87
2018-06-21T04:52:23.068Z,68.50
2018-06-21T04:54:51.721Z,68.40
2018-06-21T04:57:20.253Z,68.15
2018-06-21T04:59:48.884Z,67.47
2018-06-21T05:02:17.453Z,66.91
2018-06-21T05:04:46.060Z,65.68
2018-06-21T05:07:14.668Z,65.07
2018-06-21T05:09:43.328Z,64.35
2018-06-21T05:12:11.992Z,63.20
2018-06-21T05:14:40.547Z,62.34
2018-06-21T05:17:09.664Z,61.56
2018-06-21T05:19:38.324Z,62.95
2018-06-21T05:22:06.950Z,61.46
2018-06-21T05:24:35.669Z,62.12
2018-06-21T05:27:04.232Z,61.04
2018-06-21T05:29:32.824Z,60.55
2018-06-21T05:32:01.528Z,59.36
2018-06-21T05:34:30.017Z,59.22
2018-06-21T05:36:58.880Z,58.38
2018-06-21T05:39:27.425Z,57.82
2018-06-21T05:41:56.057Z,57.23
2018-06-21T05:44:24.644Z,57.51
2018-06-21T05:46:53.220Z,56.73
2018-06-21T05:49:22.265Z,55.98
2018-06-21T05:51:50.808Z,54.22
2018-06-21T05:54:19.416Z,55.63
2018-06-21T05:56:47.961Z,54.90
2018-06-21T05:59:16.496Z,55.72
2018-06-21T06:01:45.565Z,56.18
2018-06-21T06:04:14.099Z,55.69
2018-06-21T06:06:42.668Z,53.99
2018-06-21T06:09:12.356Z,54.78
2018-06-21T06:11:41.252Z,55.49
2018-06-21T06:14:09.862Z,54.95
2018-06-21T06:16:38.476Z,54.21
2018-06-21T06:19:07.109Z,54.48
2018-06-21T06:21:35.732Z,53.28
2018-06-21T06:24:04.387Z,54.23
2018-06-21T06:26:33.352Z,53.84
2018-06-21T06:29:01.926Z,52.71
2018-06-21T06:31:30.473Z,51.97
2018-06-21T06:33:59.023Z,52.85
2018-06-21T06:36:27.601Z,53.00
2018-06-21T06:39:00.996Z,51.00
2018-06-21T06:41:29.495Z,51.90
2018-06-21T06:43:58.085Z,52.18
2018-06-21T06:46:26.721Z,51.74
2018-06-21T06:48:55.405Z,51.20
2018-06-21T06:51:24.028Z,51.61
2018-06-21T06:53:52.576Z,51.68
2018-06-21T06:56:21.170Z,51.37
2018-06-21T06:58:49.800Z,52.01
2018-06-21T07:01:18.444Z,51.10
2018-06-21T07:03:46.984Z,52.30
2018-06-21T07:06:15.564Z,53.52
2018-06-21T07:08:44.160Z,51.80
2018-06-21T07:11:12.696Z,50.46
2018-06-21T07:13:41.256Z,48.33
2018-06-21T07:16:09.866Z,49.14
2018-06-21T07:18:38.660Z,48.75
2018-06-21T07:21:07.568Z,49.51
2018-06-21T07:23:36.642Z,49.13
2018-06-21T07:26:05.327Z,49.05
2018-06-21T07:28:34.006Z,49.41
2018-06-21T07:31:02.566Z,48.09
2018-06-21T07:33:31.079Z,48.33
2018-06-21T07:35:59.672Z,47.33
2018-06-21T07:38:28.226Z,47.74
2018-06-21T07:40:56.770Z,47.26
2018-06-21T07:43:26.176Z,47.87
2018-06-21T07:45:54.792Z,48.83
2018-06-21T07:48:23.364Z,48.04
2018-06-21T07:50:51.953Z,46.73
2018-06-21T07:53:20.616Z,46.62
2018-06-21T07:55:49.516Z,47.37
2018-06-21T07:58:18.357Z,45.97
2018-06-21T08:00:46.958Z,45.31
2018-06-21T08:03:15.504Z,46.06
2018-06-21T08:05:44.380Z,46.56
2018-06-21T08:08:12.897Z,46.76
2018-06-21T08:10:41.428Z,46.84
2018-06-21T08:13:10.069Z,45.74
2018-06-21T08:15:38.556Z,45.14
2018-06-21T08:18:07.352Z,45.28
2018-06-21T08:20:35.912Z,44.57
2018-06-21T08:23:04.481Z,43.60
2018-06-21T08:25:33.009Z,42.72
2018-06-21T08:28:01.540Z,41.55
2018-06-21T08:30:30.156Z,41.23
2018-06-21T08:32:58.656Z,38.53
2018-06-21T08:35:27.212Z,41.97
2018-06-21T08:37:55.784Z,41.36
2018-06-21T08:40:24.396Z,41.99
2018-06-21T08:42:53.224Z,42.08
2018-06-21T08:45:21.760Z,43.21
2018-06-21T08:47:50.304Z,44.20
2018-06-21T08:50:18.872Z,44.79
2018-06-21T08:52:47.478Z,44.33
2018-06-21T08:55:16.504Z,44.88
2018-06-21T08:57:45.086Z,45.38
2018-06-21T09:00:13.784Z,44.75
2018-06-21T09:02:42.372Z,44.43
2018-06-21T09:05:10.933Z,45.07
2018-06-21T09:07:39.492Z,45.85
2018-06-21T09:10:08.132Z,46.36
2018-06-21T09:12:37.496Z,47.33
2018-06-21T09:15:08.744Z,47.41
2018-06-21T09:17:37.396Z,46.07
2018-06-21T09:20:06.252Z,45.80
2018-06-21T09:22:34.796Z,45.81
2018-06-21T09:25:03.727Z,45.52
2018-06-21T09:27:32.652Z,44.87
2018-06-21T09:30:01.170Z,45.37
2018-06-21T09:32:31.190Z,46.22
2018-06-21T09:34:59.728Z,46.00
2018-06-21T09:37:33.826Z,45.76
2018-06-21T09:40:07.734Z,45.92
2018-06-21T09:42:41.877Z,45.16
2018-06-21T09:45:10.461Z,45.01
2018-06-21T09:47:44.428Z,46.00
2018-06-21T09:50:17.252Z,45.73
2018-06-21T09:52:46.460Z,45.53
2018-06-21T09:55:15.080Z,46.31
2018-06-21T09:57:43.605Z,47.31
2018-06-21T10:00:16.417Z,47.86
2018-06-21T10:02:45.153Z,48.01
2018-06-21T10:05:13.877Z,52.38
2018-06-21T10:07:42.549Z,56.69
2018-06-21T10:10:11.201Z,57.20
2018-06-21T10:12:40.660Z,58.72
2018-06-21T10:15:09.212Z,61.16
2018-06-21T10:17:38.072Z,62.17
2018-06-21T10:20:06.749Z,64.18
2018-06-21T10:22:35.316Z,63.79
2018-06-21T10:25:03.892Z,64.38
2018-06-21T10:27:32.416Z,65.67
2018-06-21T10:30:01.060Z,64.23
2018-06-21T10:32:29.834Z,64.59
2018-06-21T10:34:58.812Z,65.75
2018-06-21T10:37:27.392Z,64.01
2018-06-21T10:39:56.123Z,65.60
2018-06-21T10:42:25.174Z,66.34
2018-06-21T10:44:53.689Z,64.76
2018-06-21T10:47:22.212Z,63.71
2018-06-21T10:49:50.764Z,64.04
2018-06-21T10:52:19.296Z,63.08
2018-06-21T10:54:47.913Z,62.85
2018-06-21T10:57:16.517Z,62.41
2018-06-21T10:59:45.471Z,62.51
2018-06-21T11:02:14.105Z,64.69
2018-06-21T11:04:42.672Z,65.15
2018-06-21T11:07:11.561Z,65.27
2018-06-21T11:09:40.172Z,63.68
2018-06-21T11:12:08.788Z,61.88
2018-06-21T11:14:37.305Z,62.40
2018-06-21T11:17:05.896Z,61.67
2018-06-21T11:19:34.920Z,60.41
2018-06-21T11:22:03.496Z,59.52
2018-06-21T11:24:32.177Z,60.74
2018-06-21T11:27:00.735Z,62.17
2018-06-21T11:29:29.245Z,60.26
2018-06-21T11:31:58.208Z,57.92
2018-06-21T11:34:26.745Z,55.91
2018-06-21T11:36:55.404Z,54.44
2018-06-21T11:39:23.971Z,54.38
2018-06-21T11:41:52.780Z,55.15
2018-06-21T11:44:21.328Z,51.32
2018-06-21T11:46:50.022Z,53.00
2018-06-21T11:49:18.424Z,52.31
2018-06-21T11:51:47.088Z,51.39
2018-06-21T11:54:15.668Z,49.46
2018-06-21T11:56:44.244Z,52.24
2018-06-21T11:59:12.777Z,51.60
2018-06-21T12:01:41.584Z,50.88
2018-06-21T12:04:10.168Z,49.09
2018-06-21T12:06:38.708Z,48.19
2018-06-21T12:09:09.312Z,48.91
2018-06-21T12:11:37.845Z,50.37
2018-06-21T12:14:06.828Z,48.65
2018-06-21T12:16:35.792Z,49.25
2018-06-21T12:19:04.901Z,50.81
2018-06-21T12:21:34.657Z,48.10
2018-06-21T12:24:03.513Z,49.78
2018-06-21T12:26:32.009Z,49.90
2018-06-21T12:29:00.609Z,49.93
2018-06-21T12:31:29.193Z,51.19
2018-06-21T12:33:57.826Z,49.98
2018-06-21T12:36:26.389Z,48.26
2018-06-21T12:38:54.964Z,48.42
2018-06-21T12:41:23.713Z,48.27
2018-06-21T12:43:52.360Z,47.77
2018-06-21T12:46:21.223Z,47.76
2018-06-21T12:48:49.798Z,47.32
2018-06-21T12:51:18.368Z,45.47
2018-06-21T12:53:46.914Z,45.12
2018-06-21T12:56:15.520Z,45.92
2018-06-21T12:58:44.204Z,43.35
2018-06-21T13:01:12.745Z,43.25
2018-06-21T13:03:41.272Z,43.10
2018-06-21T13:06:09.857Z,41.94
2018-06-21T13:08:49.700Z,41.68
2018-06-21T13:11:36.456Z,40.63
2018-06-21T13:14:16.281Z,39.44
2018-06-21T13:16:45.329Z,37.39
2018-06-21T13:19:14.208Z,37.90
2018-06-21T13:21:42.747Z,38.83
2018-06-21T13:24:11.426Z,36.55
2018-06-21T13:26:39.972Z,35.83
2018-06-21T13:29:08.728Z,35.28
2018-06-21T13:31:37.277Z,36.84
2018-06-21T13:34:06.120Z,37.87
2018-06-21T13:36:34.680Z,38.84
2018-06-21T13:39:03.418Z,39.45
2018-06-21T13:41:32.049Z,38.00
2018-06-21T13:44:00.661Z,38.31
2018-06-21T13:46:29.412Z,38.37
2018-06-21T13:48:57.925Z,40.05
2018-06-21T13:51:26.572Z,39.89
2018-06-21T13:53:55.184Z,39.99
2018-06-21T13:56:23.768Z,39.77
2018-06-21T13:58:52.404Z,40.68
2018-06-21T14:01:20.932Z,40.73
2018-06-21T14:03:49.476Z,39.80
2018-06-21T14:06:18.034Z,38.44
2018-06-21T14:08:46.677Z,39.13
2018-06-21T14:11:15.268Z,38.53
2018-06-21T14:13:43.824Z,39.82
2018-06-21T14:16:12.437Z,39.84
2018-06-21T14:18:40.970Z,38.99
2018-06-21T14:21:09.534Z,38.01
2018-06-21T14:23:38.154Z,36.45
2018-06-21T14:26:06.694Z,36.69
2018-06-21T14:28:35.488Z,35.99
2018-06-21T14:31:04.033Z,37.45
2018-06-21T14:33:32.524Z,37.28
2018-06-21T14:36:01.437Z,35.95
2018-06-21T14:38:29.994Z,36.33
2018-06-21T14:40:58.596Z,36.78
2018-06-21T14:43:27.173Z,37.16
2018-06-21T14:45:55.777Z,36.58
2018-06-21T14:48:24.724Z,37.49
2018-06-21T14:50:53.241Z,37.28
2018-06-21T14:53:21.806Z,34.27
2018-06-21T14:55:50.400Z,35.27
2018-06-21T14:58:19.046Z,35.18
2018-06-21T15:00:47.634Z,35.05
2018-06-21T15:03:16.264Z,34.11
2018-06-21T15:22:49.208Z,33.88
2018-06-21T15:25:17.712Z,33.23
2018-06-21T15:27:46.115Z,33.23
2018-06-21T15:30:14.586Z,34.14
2018-06-21T15:32:43.091Z,33.40
2018-06-21T15:35:11.479Z,33.71
2018-06-21T15:37:40.135Z,33.39
2018-06-21T15:40:08.601Z,34.32
2018-06-21T15:42:37.100Z,33.44
2018-06-21T15:45:05.559Z,33.66
2018-06-21T15:47:34.027Z,32.62
2018-06-21T15:50:02.622Z,33.25
2018-06-21T15:52:31.156Z,33.12
2018-06-21T15:54:59.623Z,32.59
2018-06-21T15:57:28.084Z,32.00
2018-06-21T15:59:56.532Z,33.35
2018-06-21T16:02:25.124Z,33.65
2018-06-21T16:04:53.616Z,33.89
2018-06-21T16:07:22.088Z,33.47
2018-06-21T16:09:50.532Z,33.39
2018-06-21T16:12:18.975Z,33.40
2018-06-21T16:14:47.431Z,35.05
2018-06-21T16:17:15.919Z,34.41
2018-06-21T16:19:44.311Z,33.72
2018-06-21T16:22:12.852Z,33.92
2018-06-21T16:24:41.327Z,33.71
2018-06-21T16:27:10.016Z,34.54
2018-06-21T16:29:38.527Z,34.96
2018-06-21T16:32:07.079Z,34.24
2018-06-21T16:34:35.536Z,34.51
2018-06-21T16:37:04.062Z,34.84
2018-06-21T16:39:32.543Z,33.71
2018-06-21T16:42:00.952Z,34.31
2018-06-21T16:44:29.563Z,35.03
2018-06-21T16:46:58.005Z,33.46
2018-06-21T16:49:26.415Z,33.87
2018-06-21T16:51:54.839Z,34.29
2018-06-21T16:54:23.272Z,35.02
2018-06-21T16:56:51.791Z,35.40
2018-06-21T16:59:20.210Z,34.44
2018-06-21T17:01:48.675Z,34.56
2018-06-21T17:04:17.127Z,33.40
2018-06-21T17:06:45.619Z,33.78
2018-06-21T17:09:14.039Z,34.06
2018-06-21T17:11:42.646Z,34.65
2018-06-21T17:14:11.056Z,34.11
2018-06-21T17:16:39.527Z,35.62
2018-06-21T17:19:08.362Z,35.36
2018-06-21T17:21:36.926Z,34.78
2018-06-21T17:24:05.368Z,36.23
2018-06-21T17:26:33.800Z,36.54
2018-06-21T17:29:02.252Z,35.92
2018-06-21T17:31:30.659Z,36.90
2018-06-21T17:33:59.207Z,36.20
2018-06-21T17:36:27.623Z,36.10
2018-06-21T17:38:56.092Z,37.07
2018-06-21T17:41:24.503Z,36.68
2018-06-21T17:43:52.927Z,35.86
2018-06-21T17:46:21.464Z,35.78
2018-06-21T17:48:50.052Z,36.59
2018-06-21T17:51:18.912Z,36.93
2018-06-21T17:53:47.305Z,36.10
2018-06-21T17:56:15.840Z,36.69
2018-06-21T17:58:44.261Z,37.27
2018-06-21T18:01:12.727Z,37.06
2018-06-21T18:03:41.366Z,36.96
2018-06-21T18:06:09.823Z,36.67
2018-06-21T18:08:38.311Z,36.94
2018-06-21T18:11:06.776Z,37.30
2018-06-21T18:13:35.263Z,37.88
2018-06-21T18:16:03.954Z,37.66
2018-06-21T18:18:32.495Z,37.67
2018-06-21T18:21:00.996Z,38.17
2018-06-21T18:23:29.486Z,38.27
2018-06-21T18:25:57.960Z,37.39
2018-06-21T18:28:26.622Z,37.35
2018-06-21T18:30:55.156Z,38.58
2018-06-21T18:33:23.635Z,38.76
2018-06-21T18:35:52.165Z,38.17
2018-06-21T18:38:20.587Z,38.61
2018-06-21T18:40:49.499Z,38.37
2018-06-21T18:43:18.275Z,38.99
2018-06-21T18:45:46.743Z,38.96
2018-06-21T18:48:15.265Z,39.49
2018-06-21T18:50:43.852Z,39.63
2018-06-21T18:53:12.296Z,39.43
2018-06-21T18:55:40.707Z,40.28
2018-06-21T18:58:09.155Z,40.51
2018-06-21T19:00:37.724Z,39.65
2018-06-21T19:03:06.178Z,40.05
2018-06-21T19:05:34.685Z,40.38
2018-06-21T19:08:08.409Z,40.02
2018-06-21T19:10:42.134Z,40.49
2018-06-21T19:13:10.651Z,40.38
2018-06-21T19:15:39.214Z,40.33
2018-06-21T19:18:07.687Z,40.96
2018-06-21T19:20:36.236Z,40.87
2018-06-21T19:23:04.800Z,41.08
2018-06-21T19:25:33.347Z,40.77
2018-06-21T19:28:01.792Z,41.85
2018-06-21T19:30:30.247Z,42.14
2018-06-21T19:32:58.717Z,42.31
2018-06-21T19:35:27.263Z,41.90
2018-06-21T19:37:56.020Z,41.39
2018-06-21T19:40:24.560Z,42.89
2018-06-21T19:42:53.044Z,42.56
2018-06-21T19:45:21.870Z,42.62
2018-06-21T19:47:50.283Z,43.37
2018-06-21T19:50:19.101Z,43.44
2018-06-21T19:52:47.511Z,43.24
2018-06-21T19:55:16.086Z,43.73
2018-06-21T19:57:44.639Z,43.49
2018-06-21T20:00:13.133Z,42.30
2018-06-21T20:02:47.231Z,43.31
2018-06-21T20:05:15.620Z,43.68
2018-06-21T20:07:44.208Z,43.69
2018-06-21T20:10:12.656Z,43.63
2018-06-21T20:12:41.094Z,44.05
2018-06-21T20:15:09.611Z,43.44
2018-06-21T20:17:38.458Z,44.62
2018-06-21T20:20:12.408Z,45.60
2018-06-21T20:22:40.841Z,46.50
2018-06-21T20:25:09.451Z,46.02
2018-06-21T20:27:37.915Z,46.26
2018-06-21T20:30:06.524Z,45.34
2018-06-21T20:32:35.009Z,47.48
2018-06-21T20:35:03.527Z,46.12
2018-06-21T20:37:33.043Z,46.35
2018-06-21T20:40:01.571Z,46.15
2018-06-21T20:42:30.268Z,46.49
2018-06-21T20:44:58.747Z,45.50
2018-06-21T20:47:27.167Z,45.62
2018-06-21T20:49:55.637Z,46.71
2018-06-21T20:52:29.511Z,46.57
2018-06-21T20:54:59.148Z,47.98
2018-06-21T20:57:28.462Z,47.68
2018-06-21T20:59:57.101Z,48.54
2018-06-21T21:02:25.551Z,48.91
2018-06-21T21:05:15.068Z,49.23
2018-06-21T21:07:44.365Z,50.08
2018-06-21T21:10:14.206Z,49.38
2018-06-21T21:12:42.666Z,48.87
2018-06-21T21:15:12.165Z,49.31
2018-06-21T21:17:40.655Z,50.20
2018-06-21T21:20:09.480Z,50.85
2018-06-21T21:22:39.011Z,50.14
2018-06-21T21:25:07.450Z,50.35
2018-06-21T21:27:35.961Z,50.35
2018-06-21T21:30:06.282Z,50.26
2018-06-21T21:32:34.775Z,50.82
2018-06-21T21:35:03.363Z,51.61
2018-06-21T21:37:31.771Z,53.64
2018-06-21T21:40:05.075Z,52.70
2018-06-21T21:42:34.715Z,53.51
2018-06-21T21:45:03.224Z,55.34
2018-06-21T21:47:31.795Z,54.92
2018-06-21T21:50:00.323Z,54.19
2018-06-21T21:52:28.823Z,53.52
2018-06-21T21:54:57.302Z,53.66
2018-06-21T21:57:25.707Z,53.58
2018-06-21T21:59:54.171Z,53.55
2018-06-21T22:02:22.647Z,54.46
2018-06-21T22:04:51.152Z,54.94
2018-06-21T22:07:19.615Z,56.26
2018-06-21T22:09:48.211Z,56.32
2018-06-21T22:12:16.627Z,56.28
2018-06-21T22:14:45.103Z,55.95
2018-06-21T22:17:13.554Z,56.37
2018-06-21T22:19:41.995Z,57.00
2018-06-21T22:22:10.584Z,58.87
2018-06-21T22:24:38.990Z,59.56
2018-06-21T22:27:07.371Z,60.38
2018-06-21T22:29:35.784Z,61.62
2018-06-21T22:32:04.255Z,61.77
2018-06-21T22:34:32.879Z,61.54
2018-06-21T22:37:01.261Z,62.32
2018-06-21T22:39:29.647Z,63.00
2018-06-21T22:41:58.043Z,63.71
2018-06-21T22:44:26.432Z,65.08
2018-06-21T22:46:54.831Z,65.26
2018-06-21T22:49:23.319Z,65.99
2018-06-21T22:51:51.721Z,66.13
2018-06-21T22:54:20.232Z,66.27
2018-06-21T22:56:48.625Z,65.78
2018-06-21T22:59:17.275Z,66.26
2018-06-21T23:01:45.694Z,66.73
2018-06-21T23:04:14.111Z,66.79
2018-06-21T23:06:42.516Z,67.20
2018-06-21T23:09:10.979Z,67.46
2018-06-21T23:11:39.463Z,66.70
2018-06-21T23:14:07.958Z,65.56
2018-06-21T23:16:36.428Z,63.98
2018-06-21T23:19:18.849Z,62.11
2018-06-21T23:21:47.207Z,61.24
2018-06-21T23:24:15.840Z,61.54
2018-06-21T23:26:44.235Z,62.31
2018-06-21T23:29:12.723Z,62.52
2018-06-21T23:31:41.147Z,63.37
2018-06-21T23:34:09.663Z,63.13
2018-06-21T23:36:38.296Z,60.72
2018-06-21T23:39:09.091Z,60.79
2018-06-21T23:41:37.595Z,60.22
2018-06-21T23:44:06.068Z,59.31
2018-06-21T23:46:34.554Z,60.37
2018-06-21T23:49:02.995Z,60.01
2018-06-21T23:51:31.455Z,59.73
2018-06-21T23:54:00.116Z,59.38
2018-06-21T23:56:28.639Z,59.36
2018-06-21T23:58:57.135Z,60.46
